Terminal Aerodrome Forecast
Issued by NWS Wilmington, OH

Current Version | Previous Version | Graphics & Text | Print | Product List | Glossary On
Versions: 1 2 3 4 5 6 7 8 9 10 11 12 13 14 15 16 17 18 19 20 21 22 23 24 25 26
000
FTUS41 KILN 240800 AAA
TAFCVG
TAF AMD
KCVG 240856Z 2409/2512 13004KT P6SM SKC
     FM241400 25005KT P6SM SCT250
     FM242100 17005KT P6SM SCT080 BKN250
     FM250200 12005KT P6SM OVC080
     FM250800 14006KT P6SM VCSH SCT035 OVC050=

USA.gov is the U.S. government's official web portal to all federal, state and local government web resources and services.